Time;durP1;ratioP1;P1;durP2;ratioP2;P2;SDS_P1;SDS_P2;PMS_P1;PMS_P2;Temp;Humidity;BMP_temperature;BMP_pressure;BME280_temperature;BME280_humidity;BME280_pressure;Samples;Min_cycle;Max_cycle;Signal;HPM_P1;HPM_P2
2023/04/27 00:00:12;;;;;;;;;;;;;;;10.53;44.83;100906.44;4970263;28;6918;-78
2023/04/27 00:02:38;;;;;;;;;;;;;;;10.53;44.86;100909.84;4976602;28;7742;-77
2023/04/27 00:05:04;;;;;;;;;;;;;;;10.55;44.83;100908.25;4979852;28;7143;-78
2023/04/27 00:07:30;;;;;;;;;;;;;;;10.58;45.37;100904.13;4973839;28;7098;-78
2023/04/27 00:09:56;;;;;;;;;;;;;;;10.60;45.07;100903.38;4987970;28;6938;-77
2023/04/27 00:12:22;;;;;;;;;;;;;;;10.65;45.42;100909.66;4998205;28;6947;-78
2023/04/27 00:14:48;;;;;;;;;;;;;;;10.69;45.35;100903.03;4977492;28;7152;-78
2023/04/27 00:17:14;;;;;;;;;;;;;;;10.73;44.97;100893.84;4995842;28;6851;-75
2023/04/27 00:19:40;;;;;;;;;;;;;;;10.75;44.88;100902.50;4979379;28;6844;-75
2023/04/27 00:22:07;;;;;;;;;;;;;;;10.77;45.06;100906.00;4971677;28;7036;-76
2023/04/27 00:24:33;;;;;;;;;;;;;;;10.78;45.28;100900.97;4958266;28;7059;-78
2023/04/27 00:26:59;;;;;;;;;;;;;;;10.79;45.31;100901.84;4977821;28;8819;-76
2023/04/27 00:29:25;;;;;;;;;;;;;;;10.81;45.07;100902.81;4966822;28;7013;-75
2023/04/27 00:31:50;;;;;;;;;;;;;;;10.78;44.96;100898.41;4989325;28;6927;-79
2023/04/27 00:34:16;;;;;;;;;;;;;;;10.75;45.24;100903.34;4977641;28;6863;-75
2023/04/27 00:36:42;;;;;;;;;;;;;;;10.74;45.27;100900.72;5016969;28;7209;-77
2023/04/27 00:39:07;;;;;;;;;;;;;;;10.71;44.76;100893.75;4996483;28;6788;-78
2023/04/27 00:41:38;;;;;;;;;;;;;;;10.71;45.11;100901.44;4978070;28;7959;-78
2023/04/27 00:44:04;;;;;;;;;;;;;;;10.69;44.71;100906.47;4973993;28;6999;-78
2023/04/27 00:46:31;;;;;;;;;;;;;;;10.68;45.08;100906.41;4975095;28;7253;-77
2023/04/27 00:48:58;;;;;;;;;;;;;;;10.64;44.95;100904.44;4976283;28;7322;-78
2023/04/27 00:51:29;;;;;;;;;;;;;;;10.60;44.62;100899.97;4975195;28;6795;-75
2023/04/27 00:53:57;;;;;;;;;;;;;;;10.56;44.48;100898.91;4966925;28;7066;-79
2023/04/27 00:56:23;;;;;;;;;;;;;;;10.50;44.92;100904.56;4987704;28;7171;-77
2023/04/27 00:58:49;;;;;;;;;;;;;;;10.45;45.09;100908.53;4995562;28;7029;-78
2023/04/27 01:01:15;;;;;;;;;;;;;;;10.38;44.71;100904.72;4974741;28;6800;-75
2023/04/27 01:03:41;;;;;;;;;;;;;;;10.33;45.21;100903.56;4993376;28;6955;-78
2023/04/27 01:06:06;;;;;;;;;;;;;;;10.25;45.10;100897.13;4976130;28;6780;-78
2023/04/27 01:08:32;;;;;;;;;;;;;;;10.18;44.91;100895.00;4971643;28;6780;-78
2023/04/27 01:10:58;;;;;;;;;;;;;;;10.10;45.69;100892.00;4976801;28;6780;-78
2023/04/27 01:13:23;;;;;;;;;;;;;;;10.02;45.91;100890.69;4978438;28;6844;-78
2023/04/27 01:15:49;;;;;;;;;;;;;;;9.93;45.33;100896.13;4966223;28;6958;-79
2023/04/27 01:18:15;;;;;;;;;;;;;;;9.82;45.51;100898.09;4979527;28;7331;-75
2023/04/27 01:20:42;;;;;;;;;;;;;;;9.72;45.60;100891.53;4976034;28;6832;-75
2023/04/27 01:23:07;;;;;;;;;;;;;;;9.64;45.69;100898.75;4980642;28;6800;-78
2023/04/27 01:25:33;;;;;;;;;;;;;;;9.57;46.18;100901.72;4977708;28;7050;-75
2023/04/27 01:27:59;;;;;;;;;;;;;;;9.51;46.91;100907.38;4978197;28;7881;-78
2023/04/27 01:30:27;;;;;;;;;;;;;;;9.46;46.91;100908.75;4977030;28;7129;-78
2023/04/27 01:32:53;;;;;;;;;;;;;;;9.39;46.32;100912.59;4971808;28;7999;-78
2023/04/27 01:35:19;;;;;;;;;;;;;;;9.33;46.78;100911.34;4958511;28;7203;-78
2023/04/27 01:37:45;;;;;;;;;;;;;;;9.25;47.06;100914.31;4963173;28;6959;-78
2023/04/27 01:40:11;;;;;;;;;;;;;;;9.19;47.24;100916.53;4972783;28;7968;-77
2023/04/27 01:42:38;;;;;;;;;;;;;;;9.10;47.01;100913.41;4976872;28;7086;-78
2023/04/27 01:45:04;;;;;;;;;;;;;;;9.01;46.66;100903.47;4975216;28;7241;-76
2023/04/27 01:47:29;;;;;;;;;;;;;;;8.94;47.29;100909.00;4970908;28;7322;-78
2023/04/27 01:49:55;;;;;;;;;;;;;;;8.87;47.44;100905.16;4960731;28;7405;-77
2023/04/27 01:52:21;;;;;;;;;;;;;;;8.81;47.82;100899.66;4977379;28;6772;-78
2023/04/27 01:54:46;;;;;;;;;;;;;;;8.77;47.78;100902.81;4977048;28;6788;-78
2023/04/27 01:57:13;;;;;;;;;;;;;;;8.72;47.81;100910.19;5008087;28;6772;-78
2023/04/27 01:59:38;;;;;;;;;;;;;;;8.69;47.83;100903.22;4972116;28;6796;-78
2023/04/27 02:02:04;;;;;;;;;;;;;;;8.64;48.12;100907.16;4991507;28;8408;-78
2023/04/27 02:04:30;;;;;;;;;;;;;;;8.59;49.00;100900.84;4991292;28;8687;-79
2023/04/27 02:06:55;;;;;;;;;;;;;;;8.54;48.77;100907.34;4970178;28;7289;-76
2023/04/27 02:09:21;;;;;;;;;;;;;;;8.48;48.49;100910.34;4992825;28;8544;-77
2023/04/27 02:11:47;;;;;;;;;;;;;;;8.45;48.96;100916.13;4950297;28;7199;-78
2023/04/27 02:14:13;;;;;;;;;;;;;;;8.42;49.34;100904.84;4971825;28;6784;-78
2023/04/27 02:16:38;;;;;;;;;;;;;;;8.39;49.17;100910.63;4972388;28;6820;-78
2023/04/27 02:19:04;;;;;;;;;;;;;;;8.37;49.69;100914.75;4970339;28;6800;-77
2023/04/27 02:21:30;;;;;;;;;;;;;;;8.34;49.36;100920.53;4973950;28;7135;-78
2023/04/27 02:23:55;;;;;;;;;;;;;;;8.32;49.47;100918.69;4977388;28;6979;-77
2023/04/27 02:26:27;;;;;;;;;;;;;;;8.28;49.23;100911.59;4978430;28;6788;-79
2023/04/27 02:28:55;;;;;;;;;;;;;;;8.25;49.78;100911.41;4975520;28;6986;-78
2023/04/27 02:31:21;;;;;;;;;;;;;;;8.21;49.86;100907.75;4993028;28;8279;-78
2023/04/27 02:33:46;;;;;;;;;;;;;;;8.16;48.75;100897.25;4997814;28;6840;-76
2023/04/27 02:36:12;;;;;;;;;;;;;;;8.13;49.93;100899.63;4971163;28;6840;-77
2023/04/27 02:38:38;;;;;;;;;;;;;;;8.12;49.92;100905.50;4992297;28;8477;-77
2023/04/27 02:41:03;;;;;;;;;;;;;;;8.10;49.59;100901.94;4972749;28;7827;-78
2023/04/27 02:43:29;;;;;;;;;;;;;;;8.11;49.56;100897.72;4982235;28;6775;-78
2023/04/27 02:45:55;;;;;;;;;;;;;;;8.12;50.44;100894.38;4976060;28;9772;-78
2023/04/27 02:48:20;;;;;;;;;;;;;;;8.13;50.01;100891.94;4975723;28;6915;-78
2023/04/27 02:50:46;;;;;;;;;;;;;;;8.14;49.38;100896.28;4994473;28;6958;-79
2023/04/27 02:53:12;;;;;;;;;;;;;;;8.14;50.07;100893.72;4961786;28;8448;-77
2023/04/27 02:55:45;;;;;;;;;;;;;;;8.13;49.42;100889.41;4997177;28;6801;-75
2023/04/27 02:58:10;;;;;;;;;;;;;;;8.13;50.45;100894.50;4987468;28;7140;-75
2023/04/27 03:00:36;;;;;;;;;;;;;;;8.12;49.42;100889.28;4982892;28;7733;-75
2023/04/27 03:03:01;;;;;;;;;;;;;;;8.10;49.88;100893.41;4979723;28;6997;-75
2023/04/27 03:05:27;;;;;;;;;;;;;;;8.08;49.96;100898.41;4972778;28;7100;-75
2023/04/27 03:07:53;;;;;;;;;;;;;;;8.06;50.37;100898.31;4960409;28;6937;-75
2023/04/27 03:10:19;;;;;;;;;;;;;;;8.05;50.45;100901.63;4973540;28;6772;-76
2023/04/27 03:12:44;;;;;;;;;;;;;;;8.04;49.81;100902.41;4990091;28;6962;-75
2023/04/27 03:15:10;;;;;;;;;;;;;;;8.02;49.91;100900.56;4974139;28;7563;-75
2023/04/27 03:17:36;;;;;;;;;;;;;;;7.98;49.84;100899.47;4978675;28;7807;-75
2023/04/27 03:20:03;;;;;;;;;;;;;;;7.96;49.79;100898.47;4978165;28;6840;-75
2023/04/27 03:22:29;;;;;;;;;;;;;;;7.92;50.08;100896.50;4965822;28;6853;-75
2023/04/27 03:24:55;;;;;;;;;;;;;;;7.87;50.53;100895.31;4956520;28;7969;-75
2023/04/27 03:27:20;;;;;;;;;;;;;;;7.82;50.14;100891.56;4990587;28;7377;-75
2023/04/27 03:29:46;;;;;;;;;;;;;;;7.77;49.70;100901.47;4993854;28;6910;-75
2023/04/27 03:32:11;;;;;;;;;;;;;;;7.72;49.83;100900.25;4975872;28;7126;-75
2023/04/27 03:34:37;;;;;;;;;;;;;;;7.68;50.37;100908.50;4976574;28;7792;-76
2023/04/27 03:37:03;;;;;;;;;;;;;;;7.64;50.08;100899.75;4974769;28;7225;-75
2023/04/27 03:39:28;;;;;;;;;;;;;;;7.59;50.21;100896.88;4963898;28;6930;-76
2023/04/27 03:41:54;;;;;;;;;;;;;;;7.57;50.91;100908.66;4982086;28;6772;-75
2023/04/27 03:44:20;;;;;;;;;;;;;;;7.55;50.56;100900.03;4961118;28;8113;-75
2023/04/27 03:46:45;;;;;;;;;;;;;;;7.51;50.66;100898.03;5010486;28;6803;-76
2023/04/27 03:49:11;;;;;;;;;;;;;;;7.49;50.85;100899.59;4985168;28;7115;-76
2023/04/27 03:51:41;;;;;;;;;;;;;;;7.47;50.97;100901.16;4972168;28;7110;-75
2023/04/27 03:54:06;;;;;;;;;;;;;;;7.47;50.91;100906.28;4980096;28;6820;-75
2023/04/27 03:56:32;;;;;;;;;;;;;;;7.46;51.10;100910.47;4973264;28;7179;-76
2023/04/27 03:58:58;;;;;;;;;;;;;;;7.47;50.51;100911.38;4970663;28;8602;-76
2023/04/27 04:01:23;;;;;;;;;;;;;;;7.46;51.36;100917.25;4974149;28;6944;-75
2023/04/27 04:03:50;;;;;;;;;;;;;;;7.45;50.84;100918.03;4977872;28;7111;-75
2023/04/27 04:06:16;;;;;;;;;;;;;;;7.43;51.32;100929.78;4981031;28;6784;-75
2023/04/27 04:08:41;;;;;;;;;;;;;;;7.41;51.10;100937.34;4968060;28;7038;-76
2023/04/27 04:11:07;;;;;;;;;;;;;;;7.40;51.11;100939.78;4969625;28;6844;-75
2023/04/27 04:13:32;;;;;;;;;;;;;;;7.38;51.01;100931.13;4977618;28;6799;-75
2023/04/27 04:16:07;;;;;;;;;;;;;;;7.34;51.01;100930.94;4977231;28;6927;-75
2023/04/27 04:18:34;;;;;;;;;;;;;;;7.32;50.78;100932.47;4982510;28;7264;-75
2023/04/27 04:21:00;;;;;;;;;;;;;;;7.30;50.69;100941.69;4979628;28;6883;-75
2023/04/27 04:23:26;;;;;;;;;;;;;;;7.28;51.53;100934.69;5000102;28;6954;-76
2023/04/27 04:25:55;;;;;;;;;;;;;;;7.28;50.88;100939.78;4966412;28;8556;-76
2023/04/27 04:28:22;;;;;;;;;;;;;;;7.25;51.80;100935.41;4979280;28;7156;-76
2023/04/27 04:30:48;;;;;;;;;;;;;;;7.24;51.63;100946.34;4979412;28;7280;-76
2023/04/27 04:33:15;;;;;;;;;;;;;;;7.26;51.93;100949.91;4984466;28;7015;-76
2023/04/27 04:35:41;;;;;;;;;;;;;;;7.27;51.95;100943.13;4996497;28;6990;-75
2023/04/27 04:38:07;;;;;;;;;;;;;;;7.28;51.82;100935.59;4978954;28;7246;-75
2023/04/27 04:40:33;;;;;;;;;;;;;;;7.31;51.59;100938.34;4969932;28;6876;-75
2023/04/27 04:42:59;;;;;;;;;;;;;;;7.33;51.95;100936.78;4982612;28;7858;-76
2023/04/27 04:45:25;;;;;;;;;;;;;;;7.35;52.02;100932.69;5002807;28;7757;-75
2023/04/27 04:47:53;;;;;;;;;;;;;;;7.39;51.83;100938.00;4971951;28;7501;-76
2023/04/27 04:50:19;;;;;;;;;;;;;;;7.43;52.03;100945.06;4974462;28;7176;-75
2023/04/27 04:52:45;;;;;;;;;;;;;;;7.46;51.40;100942.75;4987647;28;6965;-75
2023/04/27 04:55:11;;;;;;;;;;;;;;;7.49;51.69;100941.31;4977354;28;7205;-75
2023/04/27 04:57:36;;;;;;;;;;;;;;;7.54;52.24;100939.06;4977349;28;6955;-76
2023/04/27 05:00:05;;;;;;;;;;;;;;;7.60;52.40;100938.59;4993335;28;8454;-76
2023/04/27 05:02:31;;;;;;;;;;;;;;;7.70;52.55;100945.22;4992190;28;7070;-77
2023/04/27 05:04:57;;;;;;;;;;;;;;;7.82;52.75;100935.81;4978359;28;8100;-76
2023/04/27 05:07:23;;;;;;;;;;;;;;;7.99;52.89;100943.75;4991792;28;6795;-76
2023/04/27 05:09:48;;;;;;;;;;;;;;;8.14;53.13;100944.78;4967062;28;7225;-76
2023/04/27 05:12:14;;;;;;;;;;;;;;;8.30;52.60;100959.44;4973285;28;6966;-75
2023/04/27 05:14:40;;;;;;;;;;;;;;;8.47;52.85;100949.47;4974617;28;7003;-75
2023/04/27 05:17:05;;;;;;;;;;;;;;;8.67;53.69;100961.00;4973776;28;7379;-76
2023/04/27 05:19:31;;;;;;;;;;;;;;;8.85;53.08;100963.88;4994504;28;7290;-76
2023/04/27 05:21:57;;;;;;;;;;;;;;;9.01;53.19;100965.72;4989734;28;7217;-75
2023/04/27 05:24:26;;;;;;;;;;;;;;;9.18;52.18;100960.78;4981333;28;7165;-76
2023/04/27 05:26:52;;;;;;;;;;;;;;;9.33;51.95;100958.31;4983796;28;6780;-76
2023/04/27 05:29:18;;;;;;;;;;;;;;;9.43;51.41;100963.19;4997592;28;6788;-78
2023/04/27 05:31:44;;;;;;;;;;;;;;;9.54;50.74;100962.97;4981836;28;6932;-78
2023/04/27 05:34:10;;;;;;;;;;;;;;;9.58;50.79;100960.69;4976196;28;7039;-78
2023/04/27 05:36:36;;;;;;;;;;;;;;;9.63;50.42;100957.50;4979202;28;7195;-78
2023/04/27 05:39:02;;;;;;;;;;;;;;;9.66;49.93;100965.41;4969431;28;7171;-78
2023/04/27 05:41:31;;;;;;;;;;;;;;;9.67;49.37;100962.91;4981213;28;6912;-78
2023/04/27 05:43:57;;;;;;;;;;;;;;;9.68;49.55;100962.13;4999778;28;6988;-78
2023/04/27 05:46:22;;;;;;;;;;;;;;;9.70;49.52;100965.66;4977439;28;7305;-78
2023/04/27 05:48:48;;;;;;;;;;;;;;;9.73;48.82;100970.06;5015999;28;6860;-78
2023/04/27 05:51:14;;;;;;;;;;;;;;;9.77;49.29;100977.16;4977273;28;7004;-76
2023/04/27 05:53:40;;;;;;;;;;;;;;;9.80;49.57;100981.56;4977897;28;6818;-76
2023/04/27 05:56:06;;;;;;;;;;;;;;;9.81;49.18;100979.09;4982753;28;6967;-76
2023/04/27 05:58:32;;;;;;;;;;;;;;;9.87;48.83;100983.72;4979813;28;6807;-77
2023/04/27 06:00:59;;;;;;;;;;;;;;;9.90;49.70;100981.34;4989936;28;7060;-76
2023/04/27 06:03:25;;;;;;;;;;;;;;;9.95;49.61;100981.63;5012770;28;6807;-76
2023/04/27 06:05:57;;;;;;;;;;;;;;;9.98;49.02;100985.22;4979788;28;8011;-76
2023/04/27 06:08:23;;;;;;;;;;;;;;;10.03;49.25;100990.63;5011858;28;7033;-76
2023/04/27 06:10:53;;;;;;;;;;;;;;;10.07;49.00;100987.47;4981517;28;7231;-76
2023/04/27 06:13:19;;;;;;;;;;;;;;;10.10;48.33;100979.09;4956654;28;7144;-76
2023/04/27 06:15:45;;;;;;;;;;;;;;;10.15;49.13;100980.25;4977515;28;7386;-76
2023/04/27 06:18:11;;;;;;;;;;;;;;;10.21;49.08;100984.84;5009549;28;7241;-76
2023/04/27 06:20:37;;;;;;;;;;;;;;;10.28;48.69;100980.19;4981491;28;7018;-76
2023/04/27 06:23:03;;;;;;;;;;;;;;;10.37;49.33;100978.91;4975766;28;6935;-75
2023/04/27 06:25:28;;;;;;;;;;;;;;;10.44;48.94;100981.09;4976363;28;6832;-76
2023/04/27 06:27:55;;;;;;;;;;;;;;;10.51;49.16;100975.53;4976925;28;6796;-76
2023/04/27 06:30:22;;;;;;;;;;;;;;;10.59;48.86;100973.41;4977893;28;6796;-76
2023/04/27 06:32:48;;;;;;;;;;;;;;;10.68;48.95;100979.03;4977872;28;8553;-76
2023/04/27 06:35:16;;;;;;;;;;;;;;;10.78;48.54;100979.56;4978195;28;6849;-76
2023/04/27 06:37:41;;;;;;;;;;;;;;;10.87;48.85;100979.22;4979254;28;6942;-76
2023/04/27 06:40:07;;;;;;;;;;;;;;;10.95;48.46;100981.41;4977897;28;6772;-76
2023/04/27 06:42:33;;;;;;;;;;;;;;;11.04;48.69;100975.88;4995163;28;7189;-76
2023/04/27 06:45:00;;;;;;;;;;;;;;;11.11;48.36;100975.44;4980692;28;6784;-78
2023/04/27 06:47:26;;;;;;;;;;;;;;;11.18;48.54;100974.06;4977223;28;7946;-77
2023/04/27 06:49:51;;;;;;;;;;;;;;;11.29;48.48;100971.22;4979532;28;7749;-76
2023/04/27 06:52:17;;;;;;;;;;;;;;;11.37;48.34;100968.28;4991787;28;7110;-76
2023/04/27 06:54:43;;;;;;;;;;;;;;;11.46;48.71;100960.19;4967949;28;7467;-76
2023/04/27 06:57:08;;;;;;;;;;;;;;;11.56;48.03;100964.13;4997286;28;6935;-75
2023/04/27 06:59:34;;;;;;;;;;;;;;;11.65;47.75;100963.72;4980471;28;6780;-76
2023/04/27 07:02:00;;;;;;;;;;;;;;;11.75;48.00;100965.97;4978864;28;6772;-75
2023/04/27 07:04:26;;;;;;;;;;;;;;;11.85;47.50;100972.47;4956808;28;8122;-76
2023/04/27 07:06:51;;;;;;;;;;;;;;;11.96;47.33;100970.44;4984313;28;6843;-76
2023/04/27 07:09:17;;;;;;;;;;;;;;;12.04;47.19;100966.63;4999804;28;7929;-76
2023/04/27 07:11:43;;;;;;;;;;;;;;;12.15;47.41;100961.13;4984626;28;7175;-76
2023/04/27 07:14:08;;;;;;;;;;;;;;;12.25;46.61;100973.66;4967574;28;7008;-76
2023/04/27 07:16:34;;;;;;;;;;;;;;;12.34;46.68;100966.41;4980197;28;6835;-76
2023/04/27 07:19:00;;;;;;;;;;;;;;;12.45;46.85;100966.03;4987800;28;6767;-76
2023/04/27 07:21:25;;;;;;;;;;;;;;;12.52;46.43;100968.13;4978890;28;6844;-76
2023/04/27 07:23:51;;;;;;;;;;;;;;;12.61;45.74;100972.84;4979000;28;6772;-76
2023/04/27 07:26:17;;;;;;;;;;;;;;;12.68;45.45;100959.44;4980437;28;6836;-76
2023/04/27 07:28:43;;;;;;;;;;;;;;;12.74;45.52;100964.00;5001713;28;7221;-76
2023/04/27 07:31:09;;;;;;;;;;;;;;;12.81;45.26;100965.22;4979567;28;6815;-76
2023/04/27 07:33:35;;;;;;;;;;;;;;;12.92;45.46;100972.59;4993281;28;7165;-75
2023/04/27 07:36:02;;;;;;;;;;;;;;;13.03;45.41;100964.50;4964446;28;6978;-76
2023/04/27 07:38:30;;;;;;;;;;;;;;;13.13;45.07;100964.13;5000615;28;7222;-76
2023/04/27 07:41:03;;;;;;;;;;;;;;;13.25;44.57;100971.53;4996344;28;7313;-76
2023/04/27 07:43:33;;;;;;;;;;;;;;;13.37;45.55;100966.09;4994012;28;7151;-76
2023/04/27 07:45:58;;;;;;;;;;;;;;;13.51;44.16;100963.28;4983567;28;8263;-76
2023/04/27 07:48:27;;;;;;;;;;;;;;;13.61;44.48;100953.47;4977062;28;7256;-76
2023/04/27 07:50:53;;;;;;;;;;;;;;;13.70;43.93;100958.13;4977653;28;7116;-76
2023/04/27 07:53:18;;;;;;;;;;;;;;;13.82;43.66;100956.94;4982599;28;7039;-76
2023/04/27 07:55:44;;;;;;;;;;;;;;;13.94;43.55;100962.59;4979462;28;6944;-76
2023/04/27 07:58:10;;;;;;;;;;;;;;;14.04;43.13;100958.72;4996646;28;7131;-76
2023/04/27 08:00:36;;;;;;;;;;;;;;;14.15;43.74;100954.03;4980676;28;8856;-76
2023/04/27 08:03:01;;;;;;;;;;;;;;;14.30;42.93;100952.09;4979814;28;6880;-76
2023/04/27 08:05:27;;;;;;;;;;;;;;;14.45;43.05;100956.13;4997826;28;6979;-76
2023/04/27 08:07:53;;;;;;;;;;;;;;;14.60;42.47;100960.16;4983630;28;7275;-76
2023/04/27 08:10:19;;;;;;;;;;;;;;;14.71;42.48;100956.31;4981513;28;6975;-76
2023/04/27 08:12:45;;;;;;;;;;;;;;;14.81;41.68;100944.66;4965161;28;6982;-76
2023/04/27 08:15:11;;;;;;;;;;;;;;;14.86;41.33;100944.00;4984584;28;6780;-76
2023/04/27 08:17:39;;;;;;;;;;;;;;;14.92;41.15;100937.34;4985049;28;6796;-76
2023/04/27 08:20:06;;;;;;;;;;;;;;;15.00;40.82;100936.81;4980851;28;6808;-75
2023/04/27 08:22:32;;;;;;;;;;;;;;;15.08;40.99;100942.28;4983435;28;7000;-75
2023/04/27 08:24:59;;;;;;;;;;;;;;;15.15;40.92;100933.06;4996413;28;6784;-75
2023/04/27 08:27:24;;;;;;;;;;;;;;;15.24;40.28;100940.25;4971450;28;6891;-75
2023/04/27 08:29:50;;;;;;;;;;;;;;;15.32;39.75;100938.84;4981996;28;6842;-75
2023/04/27 08:32:16;;;;;;;;;;;;;;;15.40;39.55;100934.84;5002326;28;7120;-75
2023/04/27 08:34:43;;;;;;;;;;;;;;;15.49;39.56;100938.59;4976619;28;6880;-75
2023/04/27 08:37:09;;;;;;;;;;;;;;;15.55;39.37;100941.41;5014433;28;7034;-75
2023/04/27 08:39:35;;;;;;;;;;;;;;;15.60;39.34;100942.44;4977508;28;6834;-75
2023/04/27 08:42:00;;;;;;;;;;;;;;;15.63;39.02;100934.78;4981714;28;6848;-75
2023/04/27 08:44:26;;;;;;;;;;;;;;;15.67;38.77;100930.63;4981232;28;6780;-75
2023/04/27 08:46:52;;;;;;;;;;;;;;;15.74;38.27;100931.72;5009587;28;6788;-75
2023/04/27 08:49:17;;;;;;;;;;;;;;;15.78;37.64;100936.19;4978078;28;6933;-75
2023/04/27 08:51:43;;;;;;;;;;;;;;;15.79;37.15;100931.06;4978831;28;6844;-75
2023/04/27 08:54:09;;;;;;;;;;;;;;;15.78;37.43;100929.28;4980322;28;7465;-75
2023/04/27 08:56:35;;;;;;;;;;;;;;;15.86;37.70;100926.09;4986149;28;6780;-75
2023/04/27 08:59:03;;;;;;;;;;;;;;;16.01;37.46;100929.25;4977943;28;6908;-76
2023/04/27 09:01:30;;;;;;;;;;;;;;;16.21;37.55;100914.41;4963141;28;7148;-75
2023/04/27 09:04:06;;;;;;;;;;;;;;;16.41;37.15;100918.47;4977144;28;8061;-75
2023/04/27 09:06:34;;;;;;;;;;;;;;;16.59;36.62;100913.00;4984644;28;8207;-75
2023/04/27 09:09:02;;;;;;;;;;;;;;;16.82;35.94;100920.63;4982264;28;6942;-76
2023/04/27 09:11:36;;;;;;;;;;;;;;;17.21;36.49;100914.91;4978152;28;7567;-75
2023/04/27 09:14:19;;;;;;;;;;;;;;;17.90;35.88;100905.53;4978681;28;6983;-75
2023/04/27 09:16:45;;;;;;;;;;;;;;;18.59;34.54;100908.13;4993462;28;7050;-75
2023/04/27 09:19:11;;;;;;;;;;;;;;;19.16;34.04;100902.44;4965181;28;7142;-75
2023/04/27 09:21:36;;;;;;;;;;;;;;;19.59;33.81;100891.09;4974271;28;6864;-75
2023/04/27 09:24:12;;;;;;;;;;;;;;;19.91;33.31;100893.44;4964375;28;6962;-75
2023/04/27 09:26:39;;;;;;;;;;;;;;;20.25;32.38;100897.50;4994228;28;6986;-75
2023/04/27 09:29:04;;;;;;;;;;;;;;;20.58;32.17;100895.38;4988753;28;7012;-75
2023/04/27 09:31:34;;;;;;;;;;;;;;;20.93;31.11;100892.41;4982525;28;7212;-75
2023/04/27 09:34:01;;;;;;;;;;;;;;;21.25;30.83;100893.66;4976004;28;8221;-75
2023/04/27 09:36:27;;;;;;;;;;;;;;;21.54;30.43;100900.09;5006265;28;7150;-75
2023/04/27 09:38:53;;;;;;;;;;;;;;;21.77;30.02;100896.00;5011895;28;6775;-75
2023/04/27 09:41:19;;;;;;;;;;;;;;;21.83;29.74;100897.78;4993041;28;7125;-76
2023/04/27 09:43:46;;;;;;;;;;;;;;;21.85;29.45;100900.41;4979248;28;7289;-76
2023/04/27 09:46:13;;;;;;;;;;;;;;;21.87;29.00;100896.94;4971592;28;7225;-76
2023/04/27 09:48:40;;;;;;;;;;;;;;;21.82;28.86;100902.97;4998084;28;6796;-76
2023/04/27 09:51:06;;;;;;;;;;;;;;;21.80;28.23;100902.09;5009007;28;8122;-76
2023/04/27 09:53:51;;;;;;;;;;;;;;;21.82;28.49;100901.25;4974861;28;6844;-76
2023/04/27 09:56:47;;;;;;;;;;;;;;;21.91;28.72;100896.13;4963594;28;7388;-76
2023/04/27 09:59:37;;;;;;;;;;;;;;;22.06;28.42;100886.66;4984507;28;6824;-76
2023/04/27 10:02:05;;;;;;;;;;;;;;;22.26;27.97;100881.59;4983777;28;6990;-76
2023/04/27 10:05:01;;;;;;;;;;;;;;;22.42;27.64;100879.09;4978596;28;6807;-76
2023/04/27 10:07:28;;;;;;;;;;;;;;;22.45;26.95;100871.28;4974431;28;6958;-76
2023/04/27 10:09:53;;;;;;;;;;;;;;;22.53;27.01;100867.03;4981332;28;6792;-76
2023/04/27 10:12:41;;;;;;;;;;;;;;;22.71;27.12;100865.38;5012795;28;6807;-76
2023/04/27 10:15:15;;;;;;;;;;;;;;;22.84;26.48;100868.91;4982282;28;6812;-76
2023/04/27 10:17:51;;;;;;;;;;;;;;;22.88;26.54;100866.31;4979788;28;7137;-76
2023/04/27 10:20:32;;;;;;;;;;;;;;;22.98;26.30;100861.13;4976439;28;6820;-76
2023/04/27 10:22:59;;;;;;;;;;;;;;;23.22;26.34;100864.69;4996855;28;6999;-76
2023/04/27 10:25:41;;;;;;;;;;;;;;;23.42;25.44;100862.19;4975612;28;6792;-76
2023/04/27 10:28:07;;;;;;;;;;;;;;;23.52;25.63;100861.31;4998430;28;7202;-76
2023/04/27 10:30:37;;;;;;;;;;;;;;;23.63;25.41;100853.47;5008479;28;7787;-76
2023/04/27 10:33:09;;;;;;;;;;;;;;;23.69;26.01;100850.88;4985326;28;7463;-76
2023/04/27 10:35:41;;;;;;;;;;;;;;;23.74;25.56;100857.84;4988278;28;7180;-76
2023/04/27 10:38:18;;;;;;;;;;;;;;;23.82;25.37;100861.34;4971414;28;6845;-76
2023/04/27 10:41:00;;;;;;;;;;;;;;;24.07;25.20;100858.75;4958533;28;7241;-76
2023/04/27 10:43:29;;;;;;;;;;;;;;;24.33;24.89;100855.22;4971320;28;7276;-76
2023/04/27 10:46:08;;;;;;;;;;;;;;;24.36;24.71;100853.47;4939672;28;8249;-76
2023/04/27 10:48:34;;;;;;;;;;;;;;;24.31;24.35;100859.59;4988949;28;6800;-76
2023/04/27 10:51:01;;;;;;;;;;;;;;;24.32;25.12;100845.59;4961275;28;6880;-74
2023/04/27 10:53:34;;;;;;;;;;;;;;;24.42;24.91;100860.44;4963955;28;7896;-74
2023/04/27 10:56:00;;;;;;;;;;;;;;;24.55;25.00;100867.41;4966088;28;7134;-73
2023/04/27 10:58:26;;;;;;;;;;;;;;;24.56;24.52;100857.78;4967410;28;7149;-73
2023/04/27 11:00:51;;;;;;;;;;;;;;;24.62;24.90;100849.03;4987549;28;6884;-73
2023/04/27 11:03:22;;;;;;;;;;;;;;;24.76;24.30;100835.88;4990260;28;7199;-73
2023/04/27 11:06:03;;;;;;;;;;;;;;;24.89;24.54;100831.47;4979106;28;7123;-73
2023/04/27 11:08:31;;;;;;;;;;;;;;;24.75;23.97;100835.00;4963061;28;7057;-73
2023/04/27 11:10:57;;;;;;;;;;;;;;;24.40;24.25;100834.25;4963304;28;6792;-72
2023/04/27 11:13:24;;;;;;;;;;;;;;;24.33;24.77;100831.63;4976165;28;6984;-72
2023/04/27 11:15:56;;;;;;;;;;;;;;;24.48;24.47;100815.88;4945259;28;6998;-74
2023/04/27 11:18:30;;;;;;;;;;;;;;;24.78;24.91;100816.69;4976172;28;6812;-72
2023/04/27 11:21:12;;;;;;;;;;;;;;;25.15;24.58;100818.22;4957360;28;6804;-72
2023/04/27 11:23:38;;;;;;;;;;;;;;;25.47;24.62;100817.16;4972342;28;6980;-71
2023/04/27 11:26:14;;;;;;;;;;;;;;;25.63;23.86;100809.19;4962507;28;7650;-73
2023/04/27 11:29:10;;;;;;;;;;;;;;;25.65;23.79;100810.91;4960259;28;6824;-71
2023/04/27 11:31:47;;;;;;;;;;;;;;;25.63;23.56;100798.69;4961622;28;7249;-71
2023/04/27 11:34:22;;;;;;;;;;;;;;;25.57;23.34;100804.84;4992247;28;6856;-72
2023/04/27 11:37:03;;;;;;;;;;;;;;;25.26;23.29;100805.06;4973675;28;7496;-72
2023/04/27 11:39:40;;;;;;;;;;;;;;;24.93;23.99;100801.78;4962251;28;7210;-71
2023/04/27 11:42:21;;;;;;;;;;;;;;;24.55;23.85;100798.41;4992720;28;7738;-72
2023/04/27 11:45:04;;;;;;;;;;;;;;;24.21;23.95;100796.75;4975644;28;7153;-74
2023/04/27 11:47:32;;;;;;;;;;;;;;;24.05;23.79;100798.53;4995144;28;6892;-71
2023/04/27 11:50:01;;;;;;;;;;;;;;;23.96;24.37;100796.78;4965797;28;6953;-72
2023/04/27 11:52:32;;;;;;;;;;;;;;;23.88;23.76;100789.78;4980449;28;7054;-74
2023/04/27 11:55:00;;;;;;;;;;;;;;;23.79;24.08;100788.06;4979136;28;6986;-72
2023/04/27 11:57:29;;;;;;;;;;;;;;;23.66;24.19;100792.44;4955656;28;6776;-72
2023/04/27 12:00:01;;;;;;;;;;;;;;;23.43;24.51;100790.69;4960615;28;6800;-74
2023/04/27 12:02:28;;;;;;;;;;;;;;;23.27;24.59;100790.63;4982873;28;6995;-72
2023/04/27 12:04:55;;;;;;;;;;;;;;;23.29;24.52;100790.66;4951279;28;10182;-72
2023/04/27 12:07:20;;;;;;;;;;;;;;;23.42;24.91;100783.72;4975016;28;6966;-71
2023/04/27 12:09:46;;;;;;;;;;;;;;;23.70;24.36;100789.81;4994651;28;6983;-73
2023/04/27 12:12:13;;;;;;;;;;;;;;;24.03;24.51;100787.16;4962677;28;7039;-72
2023/04/27 12:14:39;;;;;;;;;;;;;;;24.35;23.96;100774.91;4974605;28;7195;-73
2023/04/27 12:17:05;;;;;;;;;;;;;;;24.68;24.16;100783.50;4963011;28;7011;-71
2023/04/27 12:19:31;;;;;;;;;;;;;;;25.02;23.81;100780.75;4995597;28;6784;-72
2023/04/27 12:21:58;;;;;;;;;;;;;;;25.21;23.36;100780.63;4941241;28;6981;-72
2023/04/27 12:24:24;;;;;;;;;;;;;;;25.37;23.00;100776.13;4952745;28;6836;-72
2023/04/27 12:26:50;;;;;;;;;;;;;;;25.39;22.88;100774.38;4931978;28;7235;-73
2023/04/27 12:29:16;;;;;;;;;;;;;;;25.28;22.60;100777.06;4954483;28;6792;-72
2023/04/27 12:31:42;;;;;;;;;;;;;;;24.94;22.80;100764.19;4994494;28;6867;-70
2023/04/27 12:34:08;;;;;;;;;;;;;;;24.72;23.53;100768.63;4938695;28;7221;-72
2023/04/27 12:36:33;;;;;;;;;;;;;;;24.87;23.22;100765.09;4962740;28;6949;-70
2023/04/27 12:39:22;;;;;;;;;;;;;;;25.17;23.11;100761.41;4963851;28;7118;-71
2023/04/27 12:41:49;;;;;;;;;;;;;;;25.51;23.00;100757.69;4944640;28;6986;-70
2023/04/27 12:44:17;;;;;;;;;;;;;;;25.81;22.75;100760.94;4961303;28;6868;-75
2023/04/27 12:46:44;;;;;;;;;;;;;;;25.97;22.44;100758.13;4962253;28;6808;-69
2023/04/27 12:49:11;;;;;;;;;;;;;;;26.07;21.78;100758.03;4958746;28;7270;-71
2023/04/27 12:51:37;;;;;;;;;;;;;;;26.06;21.96;100753.66;4992802;28;9902;-70